Seadream 1 — C6PW8 — position and weather

sailwx.info

Track history (hours):
 
Tides and Currents Weather Stations Pressure Air Temp Water Temp Dewpoint Dewpoint Depression Visibility Wind Speed Wind Dir Waves Ship Positions

Seadream 1

Last reported at 2015-Apr-18 03:05 UTC. Time now 2015-Apr-22 03:44 UTC.
Position N 18°29' W 064°58'.

Length 105 m; draft 4.3 m.

Type: Ship. MMSI: 308908000.

Date/timePositionNaut miles runAvg speedWind from/ knotsBaromVisibWave heightAir tempDewpointWater temp
2015-Apr-18 03:05N 18°29' W 064°58'5 9.9
2015-Apr-18 02:33N 18°26' W 064°54'7 6.8
2015-Apr-18 01:30N 18°26' W 064°46'0 0.0
2015-Apr-18 00:28N 18°26' W 064°46'0 0.0
2015-Apr-17 23:29N 18°26' W 064°46'0 0.0
2015-Apr-17 22:32N 18°26' W 064°46'0 0.0
2015-Apr-17 21:33N 18°26' W 064°46'0 0.0
2015-Apr-17 20:30N 18°26' W 064°46'0 0.0
2015-Apr-17 19:31N 18°26' W 064°46'0 0.0
2015-Apr-17 18:29N 18°26' W 064°46'0 0.0
2015-Apr-17 17:30N 18°26' W 064°46'0 0.0
2015-Apr-17 16:33N 18°26' W 064°46'0 0.0
2015-Apr-17 15:31N 18°26' W 064°46'0 0.0
2015-Apr-17 14:32N 18°26' W 064°46'0 0.0
2015-Apr-17 13:23N 18°26' W 064°46'0 0.0
2015-Apr-17 12:30N 18°26' W 064°46'4 4.0
2015-Apr-17 11:33N 18°23' W 064°45'12 9.6
2015-Apr-17 10:15N 18°24' W 064°32'6811.9
2015-Apr-17 04:33N 18°04' W 063°24'1514.6
2015-Apr-17 03:29N 17°59' W 063°08'8 0.5
2015-Apr-16 11:19N 17°56' W 063°00'1013.4
2015-Apr-16 10:33N 17°59' W 063°10'1513.6
2015-Apr-16 09:26N 18°03' W 063°26'1213.7
2015-Apr-16 08:33N 18°07' W 063°38'5313.2
2015-Apr-16 04:30N 18°22' W 064°32'3 0.7
2015-Apr-16 00:16N 18°21' W 064°35'0 0.0
2015-Apr-15 23:32N 18°21' W 064°35'0 0.1
2015-Apr-15 22:31N 18°21' W 064°35'4 0.8
2015-Apr-15 17:33N 18°21' W 064°39'4 3.9
2015-Apr-15 16:33N 18°23' W 064°43'0 0.0
2015-Apr-15 15:30N 18°23' W 064°43'0 0.0
2015-Apr-15 14:31N 18°23' W 064°43'0 0.0
2015-Apr-15 13:32N 18°23' W 064°43'0 0.0
2015-Apr-15 12:27N 18°23' W 064°43'0 0.0
2015-Apr-15 11:33N 18°23' W 064°43'7 6.3
2015-Apr-15 10:31N 18°19' W 064°38'0 0.0
2015-Apr-15 00:16N 18°19' W 064°38'0 0.1
2015-Apr-14 23:33N 18°19' W 064°38'1212.3
2015-Apr-14 22:33N 18°17' W 064°51'5 0.4
2015-Apr-14 10:13N 18°14' W 064°55'1 1.2
2015-Apr-14 09:22N 18°14' W 064°54'7 1.0
2015-Apr-14 02:34N 18°19' W 064°49'2 1.6
2015-Apr-14 01:30N 18°20' W 064°48'0 0.0
2015-Apr-14 00:25N 18°20' W 064°48'0 0.0
2015-Apr-13 23:32N 18°20' W 064°48'0 0.0
2015-Apr-13 22:32N 18°20' W 064°48'0 0.0
2015-Apr-13 21:30N 18°20' W 064°48'0 0.0
2015-Apr-13 20:31N 18°20' W 064°48'0 0.0
2015-Apr-13 19:31N 18°20' W 064°48'0 0.0
2015-Apr-13 18:32N 18°20' W 064°48'0 0.0
2015-Apr-13 17:33N 18°20' W 064°48'0 0.0
2015-Apr-13 16:33N 18°20' W 064°48'0 0.0
2015-Apr-13 15:28N 18°20' W 064°48'0 0.0
2015-Apr-13 14:23N 18°20' W 064°48'0 0.1
2015-Apr-13 13:23N 18°20' W 064°48'0 0.1
2015-Apr-13 12:27N 18°20' W 064°48'0 0.3
2015-Apr-13 11:33N 18°21' W 064°49'6 5.9
2015-Apr-13 10:31N 18°26' W 064°46'0 0.0
2015-Apr-13 09:19N 18°26' W 064°46'0 0.0
2015-Apr-13 08:32N 18°26' W 064°46'0 0.0
2015-Apr-13 07:33N 18°26' W 064°46'0 0.0
2015-Apr-13 06:33N 18°26' W 064°46'0 0.0
2015-Apr-13 05:22N 18°26' W 064°46'0 0.0
2015-Apr-13 04:29N 18°26' W 064°46'0 0.0
2015-Apr-13 03:29N 18°26' W 064°46'0 0.0
2015-Apr-13 02:30N 18°26' W 064°46'0 0.0
2015-Apr-13 01:25N 18°26' W 064°46'0 0.0
2015-Apr-13 00:31N 18°26' W 064°46'0 0.0
2015-Apr-12 23:32N 18°26' W 064°46'0 0.0
2015-Apr-12 22:27N 18°26' W 064°46'0 0.0
2015-Apr-12 21:33N 18°26' W 064°46'0 0.0
2015-Apr-12 20:28N 18°26' W 064°46'0 0.1
2015-Apr-12 19:29N 18°26' W 064°46'0 0.0
2015-Apr-12 18:29N 18°26' W 064°46'0 0.0
2015-Apr-12 17:30N 18°26' W 064°46'0 0.0
2015-Apr-12 16:19N 18°26' W 064°46'0 0.0
2015-Apr-12 15:20N 18°26' W 064°46'0 0.0
2015-Apr-12 14:32N 18°26' W 064°46'0 0.0
2015-Apr-12 13:30N 18°26' W 064°46'0 0.1
2015-Apr-12 12:30N 18°26' W 064°46'0 0.0
2015-Apr-12 11:28N 18°26' W 064°46'1 1.0
2015-Apr-12 10:33N 18°26' W 064°45'0 0.0
2015-Apr-12 09:25N 18°26' W 064°45'0 0.0
2015-Apr-12 08:29N 18°26' W 064°45'0 0.0
2015-Apr-12 07:27N 18°26' W 064°45'0 0.0
2015-Apr-12 06:28N 18°26' W 064°45'0 0.0
2015-Apr-12 05:23N 18°26' W 064°45'0 0.0
2015-Apr-12 04:29N 18°26' W 064°45'0 0.0
2015-Apr-12 03:30N 18°26' W 064°45'0 0.0
2015-Apr-12 02:31N 18°26' W 064°45'0 0.0
2015-Apr-12 01:19N 18°26' W 064°45'0 0.0
2015-Apr-12 00:32N 18°26' W 064°45'0 0.0
2015-Apr-11 23:32N 18°26' W 064°45'9 8.9
2015-Apr-11 22:34N 18°23' W 064°37'10 0.9
2015-Apr-11 11:24N 18°26' W 064°27'65 9.4
2015-Apr-11 04:33N 18°04' W 063°23'1311.9
2015-Apr-11 03:28N 17°60' W 063°11'10 0.7
2015-Apr-10 12:20N 17°56' W 063°00'8 9.8
2015-Apr-10 11:32N 17°57' W 063°09'10 9.8
2015-Apr-10 10:33N 17°59' W 063°19'10 9.2
2015-Apr-10 09:30N 18°01' W 063°28'7512.4
2015-Apr-10 03:25N 18°16' W 064°46'10 0.5
2015-Apr-09 08:13N 18°14' W 064°56'1 1.4
2015-Apr-09 07:28N 18°14' W 064°55'1 1.3
2015-Apr-09 06:28N 18°14' W 064°54'14 4.5
2015-Apr-09 03:16N 18°17' W 064°39'7 9.5
2015-Apr-09 02:34N 18°22' W 064°43'5 4.7
2015-Apr-09 01:34N 18°26' W 064°46'0 0.0
2015-Apr-09 00:29N 18°26' W 064°46'0 0.0
2015-Apr-08 23:27N 18°26' W 064°46'0 0.0
2015-Apr-08 22:27N 18°26' W 064°46'0 0.0
2015-Apr-08 21:04N 18°26' W 064°46'0 0.0
2015-Apr-08 20:29N 18°26' W 064°46'0 0.0
2015-Apr-08 19:29N 18°26' W 064°46'0 0.0
2015-Apr-08 18:30N 18°26' W 064°46'0 0.0
2015-Apr-08 17:31N 18°26' W 064°46'0 0.0
2015-Apr-08 16:31N 18°26' W 064°46'0 0.0
2015-Apr-08 15:32N 18°26' W 064°46'0 0.0
2015-Apr-08 14:33N 18°26' W 064°46'0 0.0
2015-Apr-08 13:33N 18°26' W 064°46'0 0.0
2015-Apr-08 12:28N 18°26' W 064°46'0 0.1
2015-Apr-08 11:33N 18°26' W 064°46'7 7.1
2015-Apr-08 10:33N 18°23' W 064°40'9 9.2
2015-Apr-08 09:33N 18°24' W 064°30'6211.9
2015-Apr-08 04:20N 18°05' W 063°28'1113.4
2015-Apr-08 03:33N 18°02' W 063°17'  
Track history (hours):
 
Tides and Currents Weather Stations Pressure Air Temp Water Temp Dewpoint Dewpoint Depression Visibility Wind Speed Wind Dir Waves Ship Positions

Seadream 1

Last reported at 2015-Apr-18 03:05 UTC. Time now 2015-Apr-22 03:44 UTC.
Position N 18°29' W 064°58'.

Length 105 m; draft 4.3 m.

Type: Ship. MMSI: 308908000.

Date/timePositionNaut miles runAvg speedWind from/ knotsBaromVisibWave heightAir tempDewpointWater temp
2015-Apr-18 03:05N 18°29' W 064°58'5 9.9
2015-Apr-18 02:33N 18°26' W 064°54'7 6.8
2015-Apr-18 01:30N 18°26' W 064°46'0 0.0
2015-Apr-18 00:28N 18°26' W 064°46'0 0.0
2015-Apr-17 23:29N 18°26' W 064°46'0 0.0
2015-Apr-17 22:32N 18°26' W 064°46'0 0.0
2015-Apr-17 21:33N 18°26' W 064°46'0 0.0
2015-Apr-17 20:30N 18°26' W 064°46'0 0.0
2015-Apr-17 19:31N 18°26' W 064°46'0 0.0
2015-Apr-17 18:29N 18°26' W 064°46'0 0.0
2015-Apr-17 17:30N 18°26' W 064°46'0 0.0
2015-Apr-17 16:33N 18°26' W 064°46'0 0.0
2015-Apr-17 15:31N 18°26' W 064°46'0 0.0
2015-Apr-17 14:32N 18°26' W 064°46'0 0.0
2015-Apr-17 13:23N 18°26' W 064°46'0 0.0
2015-Apr-17 12:30N 18°26' W 064°46'4 4.0
2015-Apr-17 11:33N 18°23' W 064°45'12 9.6
2015-Apr-17 10:15N 18°24' W 064°32'6811.9
2015-Apr-17 04:33N 18°04' W 063°24'1514.6
2015-Apr-17 03:29N 17°59' W 063°08'8 0.5
2015-Apr-16 11:19N 17°56' W 063°00'1013.4
2015-Apr-16 10:33N 17°59' W 063°10'1513.6
2015-Apr-16 09:26N 18°03' W 063°26'1213.7
2015-Apr-16 08:33N 18°07' W 063°38'5313.2
2015-Apr-16 04:30N 18°22' W 064°32'3 0.7
2015-Apr-16 00:16N 18°21' W 064°35'0 0.0
2015-Apr-15 23:32N 18°21' W 064°35'0 0.1
2015-Apr-15 22:31N 18°21' W 064°35'4 0.8
2015-Apr-15 17:33N 18°21' W 064°39'4 3.9
2015-Apr-15 16:33N 18°23' W 064°43'0 0.0
2015-Apr-15 15:30N 18°23' W 064°43'0 0.0
2015-Apr-15 14:31N 18°23' W 064°43'0 0.0
2015-Apr-15 13:32N 18°23' W 064°43'0 0.0
2015-Apr-15 12:27N 18°23' W 064°43'0 0.0
2015-Apr-15 11:33N 18°23' W 064°43'7 6.3
2015-Apr-15 10:31N 18°19' W 064°38'0 0.0
2015-Apr-15 00:16N 18°19' W 064°38'0 0.1
2015-Apr-14 23:33N 18°19' W 064°38'1212.3
2015-Apr-14 22:33N 18°17' W 064°51'5 0.4
2015-Apr-14 10:13N 18°14' W 064°55'1 1.2
2015-Apr-14 09:22N 18°14' W 064°54'7 1.0
2015-Apr-14 02:34N 18°19' W 064°49'2 1.6
2015-Apr-14 01:30N 18°20' W 064°48'0 0.0
2015-Apr-14 00:25N 18°20' W 064°48'0 0.0
2015-Apr-13 23:32N 18°20' W 064°48'0 0.0
2015-Apr-13 22:32N 18°20' W 064°48'0 0.0
2015-Apr-13 21:30N 18°20' W 064°48'0 0.0
2015-Apr-13 20:31N 18°20' W 064°48'0 0.0
2015-Apr-13 19:31N 18°20' W 064°48'0 0.0
2015-Apr-13 18:32N 18°20' W 064°48'0 0.0
2015-Apr-13 17:33N 18°20' W 064°48'0 0.0
2015-Apr-13 16:33N 18°20' W 064°48'0 0.0
2015-Apr-13 15:28N 18°20' W 064°48'0 0.0
2015-Apr-13 14:23N 18°20' W 064°48'0 0.1
2015-Apr-13 13:23N 18°20' W 064°48'0 0.1
2015-Apr-13 12:27N 18°20' W 064°48'0 0.3
2015-Apr-13 11:33N 18°21' W 064°49'6 5.9
2015-Apr-13 10:31N 18°26' W 064°46'0 0.0
2015-Apr-13 09:19N 18°26' W 064°46'0 0.0
2015-Apr-13 08:32N 18°26' W 064°46'0 0.0
2015-Apr-13 07:33N 18°26' W 064°46'0 0.0
2015-Apr-13 06:33N 18°26' W 064°46'0 0.0
2015-Apr-13 05:22N 18°26' W 064°46'0 0.0
2015-Apr-13 04:29N 18°26' W 064°46'0 0.0
2015-Apr-13 03:29N 18°26' W 064°46'0 0.0
2015-Apr-13 02:30N 18°26' W 064°46'0 0.0
2015-Apr-13 01:25N 18°26' W 064°46'0 0.0
2015-Apr-13 00:31N 18°26' W 064°46'0 0.0
2015-Apr-12 23:32N 18°26' W 064°46'0 0.0
2015-Apr-12 22:27N 18°26' W 064°46'0 0.0
2015-Apr-12 21:33N 18°26' W 064°46'0 0.0
2015-Apr-12 20:28N 18°26' W 064°46'0 0.1
2015-Apr-12 19:29N 18°26' W 064°46'0 0.0
2015-Apr-12 18:29N 18°26' W 064°46'0 0.0
2015-Apr-12 17:30N 18°26' W 064°46'0 0.0
2015-Apr-12 16:19N 18°26' W 064°46'0 0.0
2015-Apr-12 15:20N 18°26' W 064°46'0 0.0
2015-Apr-12 14:32N 18°26' W 064°46'0 0.0
2015-Apr-12 13:30N 18°26' W 064°46'0 0.1
2015-Apr-12 12:30N 18°26' W 064°46'0 0.0
2015-Apr-12 11:28N 18°26' W 064°46'1 1.0
2015-Apr-12 10:33N 18°26' W 064°45'0 0.0
2015-Apr-12 09:25N 18°26' W 064°45'0 0.0
2015-Apr-12 08:29N 18°26' W 064°45'0 0.0
2015-Apr-12 07:27N 18°26' W 064°45'0 0.0
2015-Apr-12 06:28N 18°26' W 064°45'0 0.0
2015-Apr-12 05:23N 18°26' W 064°45'0 0.0
2015-Apr-12 04:29N 18°26' W 064°45'0 0.0
2015-Apr-12 03:30N 18°26' W 064°45'0 0.0
2015-Apr-12 02:31N 18°26' W 064°45'0 0.0
2015-Apr-12 01:19N 18°26' W 064°45'0 0.0
2015-Apr-12 00:32N 18°26' W 064°45'0 0.0
2015-Apr-11 23:32N 18°26' W 064°45'9 8.9
2015-Apr-11 22:34N 18°23' W 064°37'10 0.9
2015-Apr-11 11:24N 18°26' W 064°27'65 9.4
2015-Apr-11 04:33N 18°04' W 063°23'1311.9
2015-Apr-11 03:28N 17°60' W 063°11'10 0.7
2015-Apr-10 12:20N 17°56' W 063°00'8 9.8
2015-Apr-10 11:32N 17°57' W 063°09'10 9.8
2015-Apr-10 10:33N 17°59' W 063°19'10 9.2
2015-Apr-10 09:30N 18°01' W 063°28'7512.4
2015-Apr-10 03:25N 18°16' W 064°46'10 0.5
2015-Apr-09 08:13N 18°14' W 064°56'1 1.4
2015-Apr-09 07:28N 18°14' W 064°55'1 1.3
2015-Apr-09 06:28N 18°14' W 064°54'14 4.5
2015-Apr-09 03:16N 18°17' W 064°39'7 9.5
2015-Apr-09 02:34N 18°22' W 064°43'5 4.7
2015-Apr-09 01:34N 18°26' W 064°46'0 0.0
2015-Apr-09 00:29N 18°26' W 064°46'0 0.0
2015-Apr-08 23:27N 18°26' W 064°46'0 0.0
2015-Apr-08 22:27N 18°26' W 064°46'0 0.0
2015-Apr-08 21:04N 18°26' W 064°46'0 0.0
2015-Apr-08 20:29N 18°26' W 064°46'0 0.0
2015-Apr-08 19:29N 18°26' W 064°46'0 0.0
2015-Apr-08 18:30N 18°26' W 064°46'0 0.0
2015-Apr-08 17:31N 18°26' W 064°46'0 0.0
2015-Apr-08 16:31N 18°26' W 064°46'0 0.0
2015-Apr-08 15:32N 18°26' W 064°46'0 0.0
2015-Apr-08 14:33N 18°26' W 064°46'0 0.0
2015-Apr-08 13:33N 18°26' W 064°46'0 0.0
2015-Apr-08 12:28N 18°26' W 064°46'0 0.1
2015-Apr-08 11:33N 18°26' W 064°46'7 7.1
2015-Apr-08 10:33N 18°23' W 064°40'9 9.2
2015-Apr-08 09:33N 18°24' W 064°30'6211.9
2015-Apr-08 04:20N 18°05' W 063°28'1113.4
2015-Apr-08 03:33N 18°02' W 063°17'  

Dump ship's entire track history